Weather History for Winchester, TN

Change the Weather History Date:

Monday, December 31, 2012

  Actual Average (KTHA) Record (KTHA)
Temperature  
Mean Temperature 34 °F -  
Max Temperature 46 °F 49 °F 46 °F (2012)
Min Temperature 23 °F 31 °F 19 °F (2013)
Degree Days  
Heating Degree Days 30    
Moisture  
Dew Point 28 °F    
Average Humidity 69    
Maximum Humidity 100    
Minimum Humidity 43    
Precipitation  
Precipitation 0.00 in - - ()
Sea Level Pressure  
Sea Level Pressure 30.25 in    
Wind  
Wind Speed 4 mph (SSE)    
Max Wind Speed 10 mph    
Max Gust Speed -    
Visibility 10 miles    
Events      
Averages and records for this station are not official NWS values.
T = Trace of Precipitation, MM = Missing Value Source: NWS Daily Summary

Daily Weather History Graph

Daily Weather History Graph

Search for Another Location

Airport:

Trip Planner

Search our weather history database for the weather conditions in past years. The results will help you decide how hot, cold, wet, or windy it might be!

Date:

Astronomy

Dec. 31, 2012 Rise Set
Actual Time 7:52 AM EST 5:42 PM EST
Civil Twilight 7:24 AM EST 6:10 PM EST
Nautical Twilight 6:52 AM EST 6:42 PM EST
Astronomical Twilight 6:21 AM EST 7:13 PM EST
Moon 9:04 PM EST 9:41 AM EST
Length of Visible Light 10h 46m
Length of Day
9h 50m
Waning Gibbous, 90% of the Moon is Illuminated
Dec 31
Waning Gibbous
Jan 4
Last Quarter
Jan 11
New
Jan 18
First Quarter
Jan 26
Full

Hourly Weather History & Observations

Time (EST) Temp. Windchill Dew Point Humidity Pressure Visibility Wind Dir Wind Speed Gust Speed Precip Events Conditions
12:15 AM 24.8 °F - 24.8 °F 100% 30.36 in 10.0 mi Calm Calm - N/A   Clear
12:35 AM 24.8 °F - 23.0 °F 93% 30.35 in 10.0 mi Calm Calm - N/A   Clear
12:55 AM 23.0 °F - 21.2 °F 93% 30.35 in 10.0 mi Calm Calm - N/A   Clear
1:35 AM 26.6 °F - 24.8 °F 93% 30.35 in 10.0 mi Calm Calm - N/A   Clear
1:55 AM 24.8 °F - 23.0 °F 93% 30.36 in 10.0 mi Calm Calm - N/A   Clear
2:15 AM 26.6 °F - 24.8 °F 93% 30.35 in 10.0 mi Calm Calm - N/A   Clear
2:35 AM 28.4 °F - 26.6 °F 93% 30.35 in 10.0 mi Calm Calm - N/A   Clear
2:55 AM 28.4 °F - 26.6 °F 93% 30.36 in 10.0 mi Calm Calm - N/A   Clear
3:15 AM 30.2 °F 26.7 °F 26.6 °F 86% 30.35 in 10.0 mi ESE 3.5 mph - N/A   Clear
3:35 AM 30.2 °F - 24.8 °F 80% 30.36 in 10.0 mi Calm Calm - N/A   Clear
3:55 AM 30.2 °F - 26.6 °F 86% 30.35 in 10.0 mi Calm Calm - N/A   Clear
4:15 AM 28.4 °F 24.6 °F 26.6 °F 93% 30.34 in 10.0 mi SE 3.5 mph - N/A   Clear
4:35 AM 28.4 °F 23.3 °F 26.6 °F 93% 30.33 in 10.0 mi ESE 4.6 mph - N/A   Clear
4:55 AM 30.2 °F 24.3 °F 26.6 °F 86% 30.33 in 10.0 mi SE 5.8 mph - N/A   Clear
5:15 AM 30.2 °F 26.7 °F 26.6 °F 86% 30.32 in 10.0 mi ESE 3.5 mph - N/A   Scattered Clouds
5:35 AM 30.2 °F 25.4 °F 26.6 °F 86% 30.32 in 10.0 mi ESE 4.6 mph - N/A   Mostly Cloudy
5:55 AM 32.0 °F 26.4 °F 26.6 °F 80% 30.33 in 10.0 mi ESE 5.8 mph - N/A   Mostly Cloudy
6:15 AM 32.0 °F 27.5 °F 26.6 °F 80% 30.34 in 10.0 mi ESE 4.6 mph - N/A   Partly Cloudy
6:35 AM 32.0 °F 26.4 °F 26.6 °F 80% 30.33 in 10.0 mi ESE 5.8 mph - N/A   Partly Cloudy
6:55 AM 32.0 °F 25.6 °F 26.6 °F 80% 30.32 in 10.0 mi ESE 6.9 mph - N/A   Partly Cloudy
7:15 AM 32.0 °F 28.7 °F 26.6 °F 80% 30.34 in 10.0 mi ESE 3.5 mph - N/A   Clear
7:35 AM 30.2 °F 24.3 °F 24.8 °F 80% 30.33 in 10.0 mi ESE 5.8 mph - N/A   Clear
7:55 AM 30.2 °F 25.4 °F 24.8 °F 80% 30.33 in 10.0 mi ESE 4.6 mph - N/A   Clear
8:15 AM 30.2 °F 25.4 °F 24.8 °F 80% 30.33 in 10.0 mi ESE 4.6 mph - N/A   Clear
8:35 AM 30.2 °F 26.7 °F 24.8 °F 80% 30.34 in 10.0 mi ESE 3.5 mph - N/A   Clear
8:55 AM 32.0 °F 27.5 °F 26.6 °F 80% 30.31 in 10.0 mi ESE 4.6 mph - N/A   Clear
9:15 AM 33.8 °F 29.6 °F 26.6 °F 75% 30.33 in 10.0 mi SE 4.6 mph - N/A   Clear
9:35 AM 35.6 °F 30.7 °F 26.6 °F 70% 30.33 in 10.0 mi SE 5.8 mph - N/A   Clear
9:55 AM 35.6 °F 30.7 °F 28.4 °F 75% 30.33 in 10.0 mi SE 5.8 mph - N/A   Clear
10:15 AM 37.4 °F 33.8 °F 26.6 °F 65% 30.33 in 10.0 mi SE 4.6 mph - N/A   Partly Cloudy
10:35 AM 39.2 °F 33.6 °F 28.4 °F 65% 30.31 in 10.0 mi SSE 8.1 mph - N/A   Mostly Cloudy
10:55 AM 41.0 °F 37.1 °F 26.6 °F 57% 30.33 in 10.0 mi SSE 5.8 mph - N/A   Mostly Cloudy
11:15 AM 42.8 °F 38.6 °F 26.6 °F 53% 30.32 in 10.0 mi SSE 6.9 mph - N/A   Mostly Cloudy
11:35 AM 44.6 °F 41.4 °F 26.6 °F 49% 30.31 in 10.0 mi South 5.8 mph - N/A   Mostly Cloudy
11:55 AM 44.6 °F 41.4 °F 26.6 °F 49% 30.30 in 10.0 mi South 5.8 mph - N/A   Overcast
12:15 PM 44.6 °F - 26.6 °F 49% 30.29 in 10.0 mi Calm Calm - N/A   Overcast
12:35 PM 44.6 °F 40.7 °F 24.8 °F 46% 30.26 in 10.0 mi SSW 6.9 mph - N/A   Overcast
12:55 PM 46.4 °F 44.3 °F 24.8 °F 43% 30.24 in 10.0 mi South 4.6 mph - N/A   Overcast
1:15 PM 46.4 °F 45.2 °F 24.8 °F 43% 30.24 in 10.0 mi SSW 3.5 mph - N/A   Overcast
1:35 PM 46.4 °F 44.3 °F 24.8 °F 43% 30.24 in 10.0 mi SW 4.6 mph - N/A   Mostly Cloudy
1:55 PM 46.4 °F 42.9 °F 24.8 °F 43% 30.21 in 10.0 mi SSW 6.9 mph - N/A   Overcast
2:15 PM 46.4 °F 42.9 °F 24.8 °F 43% 30.21 in 10.0 mi SSW 6.9 mph - N/A   Overcast
2:35 PM 46.4 °F 42.9 °F 24.8 °F 43% 30.21 in 10.0 mi SW 6.9 mph - N/A   Overcast
2:55 PM 46.4 °F 42.4 °F 26.6 °F 46% 30.20 in 10.0 mi South 8.1 mph - N/A   Overcast
3:15 PM 44.6 °F 40.2 °F 24.8 °F 46% 30.19 in 10.0 mi SSE 8.1 mph - N/A   Overcast
3:35 PM 44.6 °F 41.4 °F 30.2 °F 57% 30.18 in 10.0 mi SE 5.8 mph - N/A   Overcast
3:55 PM 44.6 °F 41.4 °F 30.2 °F 57% 30.18 in 10.0 mi SE 5.8 mph - N/A   Overcast
4:15 PM 44.6 °F 43.1 °F 28.4 °F 53% 30.18 in 10.0 mi SE 3.5 mph - N/A   Overcast
4:35 PM 44.6 °F 42.2 °F 28.4 °F 53% 30.19 in 10.0 mi SSE 4.6 mph - N/A   Overcast
4:55 PM 44.6 °F 41.4 °F 28.4 °F 53% 30.19 in 10.0 mi South 5.8 mph - N/A   Mostly Cloudy
5:15 PM 44.6 °F 40.7 °F 28.4 °F 53% 30.18 in 10.0 mi SSE 6.9 mph - N/A   Mostly Cloudy
5:35 PM 44.6 °F 40.2 °F 28.4 °F 53% 30.18 in 10.0 mi South 8.1 mph - N/A   Mostly Cloudy
5:55 PM 44.6 °F 40.7 °F 28.4 °F 53% 30.18 in 10.0 mi SSE 6.9 mph - N/A   Overcast
6:15 PM 44.6 °F 40.2 °F 28.4 °F 53% 30.17 in 10.0 mi SSE 8.1 mph - N/A   Overcast
6:35 PM 44.6 °F 40.2 °F 28.4 °F 53% 30.16 in 10.0 mi SSE 8.1 mph - N/A   Overcast
7:15 PM 44.6 °F 40.7 °F 30.2 °F 57% 30.16 in 10.0 mi SSE 6.9 mph - N/A   Overcast
7:35 PM 44.6 °F 40.7 °F 30.2 °F 57% 30.15 in 10.0 mi SSE 6.9 mph - N/A   Overcast
7:55 PM 44.6 °F 41.4 °F 30.2 °F 57% 30.15 in 10.0 mi SSE 5.8 mph - N/A   Overcast
8:15 PM 44.6 °F 40.2 °F 32.0 °F 61% 30.13 in 10.0 mi SSE 8.1 mph - N/A   Scattered Clouds
8:35 PM 44.6 °F 42.2 °F 33.8 °F 66% 30.13 in 10.0 mi SSE 4.6 mph - N/A   Mostly Cloudy
8:55 PM 42.8 °F 38.0 °F 33.8 °F 70% 30.12 in 10.0 mi SSE 8.1 mph - N/A   Mostly Cloudy
9:15 PM 44.6 °F 39.2 °F 33.8 °F 66% 30.09 in 10.0 mi SSE 10.4 mph - N/A   Mostly Cloudy
9:35 PM 44.6 °F 40.7 °F 35.6 °F 71% 30.08 in 10.0 mi SE 6.9 mph - N/A   Overcast
9:55 PM 44.6 °F 42.2 °F 35.6 °F 71% 30.10 in 10.0 mi SE 4.6 mph - N/A   Mostly Cloudy
10:15 PM 44.6 °F 40.2 °F 35.6 °F 71% 30.09 in 10.0 mi SSE 8.1 mph - N/A   Scattered Clouds
10:35 PM 44.6 °F 39.7 °F 35.6 °F 71% 30.08 in 10.0 mi SSE 9.2 mph - N/A   Mostly Cloudy
10:55 PM 44.6 °F 40.7 °F 35.6 °F 71% 30.07 in 10.0 mi SE 6.9 mph - N/A   Mostly Cloudy
11:15 PM 44.6 °F 40.7 °F 35.6 °F 71% 30.07 in 10.0 mi SE 6.9 mph - N/A   Mostly Cloudy
11:35 PM 44.6 °F 39.7 °F 35.6 °F 71% 30.05 in 10.0 mi ESE 9.2 mph - N/A   Overcast
11:55 PM 44.6 °F 41.4 °F 37.4 °F 76% 30.07 in 10.0 mi SE 5.8 mph - N/A   Overcast